Time;durP1;ratioP1;P1;durP2;ratioP2;P2;SDS_P1;SDS_P2;PMS_P1;PMS_P2;Temp;Humidity;BMP_temperature;BMP_pressure;BME280_temperature;BME280_humidity;BME280_pressure;Samples;Min_cycle;Max_cycle;Signal;HPM_P1;HPM_P2
2023/04/16 00:01:05;;;;;;;27.13;17.57;;;;;;;7.87;100.00;98722.78;5015591;28;20249;-57
2023/04/16 00:03:32;;;;;;;23.47;16.90;;;;;;;7.90;100.00;98726.88;5015214;28;20320;-53
2023/04/16 00:06:00;;;;;;;26.13;17.57;;;;;;;7.87;100.00;98729.72;5016489;28;20227;-54
2023/04/16 00:08:26;;;;;;;27.87;18.17;;;;;;;7.87;100.00;98724.53;5014866;28;20276;-54
2023/04/16 00:10:53;;;;;;;26.27;17.43;;;;;;;7.86;100.00;98723.72;5018142;28;20879;-55
2023/04/16 00:13:21;;;;;;;29.13;17.90;;;;;;;7.85;100.00;98722.06;5014442;28;20586;-56
2023/04/16 00:15:48;;;;;;;26.57;17.57;;;;;;;7.85;100.00;98729.88;5017698;28;20233;-52
2023/04/16 00:18:14;;;;;;;26.20;17.97;;;;;;;7.87;100.00;98725.38;5012242;28;20230;-52
2023/04/16 00:20:41;;;;;;;26.63;18.03;;;;;;;7.88;100.00;98727.03;5017612;28;20261;-55
2023/04/16 00:23:09;;;;;;;27.07;18.07;;;;;;;7.91;100.00;98736.31;5013502;28;20238;-53
2023/04/16 00:25:35;;;;;;;27.00;18.00;;;;;;;7.90;100.00;98734.66;5016059;28;20216;-53
2023/04/16 00:28:02;;;;;;;25.70;17.30;;;;;;;7.91;100.00;98734.56;5016292;28;20771;-53
2023/04/16 00:30:30;;;;;;;25.23;16.90;;;;;;;7.94;100.00;98725.66;5000320;28;20276;-56
2023/04/16 00:32:56;;;;;;;25.30;17.40;;;;;;;7.93;100.00;98737.84;4998150;28;21235;-53
2023/04/16 00:35:23;;;;;;;26.37;17.87;;;;;;;7.92;100.00;98731.00;4987419;28;20587;-53
2023/04/16 00:37:49;;;;;;;26.40;18.07;;;;;;;7.90;100.00;98730.31;4983099;28;20223;-56
2023/04/16 00:40:17;;;;;;;27.17;18.37;;;;;;;7.91;100.00;98738.91;4988241;28;20276;-54
2023/04/16 00:42:45;;;;;;;26.97;18.37;;;;;;;7.89;100.00;98739.06;5003175;28;20241;-53
2023/04/16 00:45:12;;;;;;;24.63;17.83;;;;;;;7.88;100.00;98729.63;4991184;28;20535;-53
2023/04/16 00:47:39;;;;;;;26.03;17.70;;;;;;;7.87;100.00;98732.34;4995028;28;20225;-53
2023/04/16 00:50:06;;;;;;;26.47;18.00;;;;;;;7.88;100.00;98731.38;5015391;28;20243;-53
2023/04/16 00:52:34;;;;;;;28.23;18.40;;;;;;;7.92;100.00;98728.41;5003525;28;20711;-53
2023/04/16 00:55:01;;;;;;;28.07;17.57;;;;;;;7.94;100.00;98736.06;5005622;28;20617;-56
2023/04/16 00:57:30;;;;;;;28.40;17.53;;;;;;;7.94;100.00;98730.84;5011603;28;20288;-53
2023/04/16 00:59:57;;;;;;;24.97;17.37;;;;;;;7.92;100.00;98737.97;4984913;28;20234;-55
2023/04/16 01:02:24;;;;;;;27.43;19.37;;;;;;;7.89;100.00;98736.47;4982233;28;20713;-53
2023/04/16 01:04:51;;;;;;;30.53;18.43;;;;;;;7.88;100.00;98737.41;5017688;28;20234;-56
2023/04/16 01:07:20;;;;;;;27.63;18.47;;;;;;;7.88;100.00;98736.56;4991299;28;20218;-56
2023/04/16 01:09:56;;;;;;;25.90;17.60;;;;;;;7.86;100.00;98735.88;4945227;28;20237;-56
2023/04/16 01:12:25;;;;;;;25.57;17.47;;;;;;;7.89;100.00;98740.81;4934390;28;20249;-52
2023/04/16 01:14:53;;;;;;;27.63;17.87;;;;;;;7.89;100.00;98740.81;5006956;28;20318;-53
2023/04/16 01:17:20;;;;;;;28.73;18.17;;;;;;;7.89;100.00;98740.81;5014717;28;20229;-54
2023/04/16 01:19:47;;;;;;;28.50;19.07;;;;;;;7.88;100.00;98740.00;4999980;28;20235;-53
2023/04/16 01:22:15;;;;;;;28.53;19.40;;;;;;;7.85;100.00;98739.44;4989581;28;20230;-55
2023/04/16 01:24:41;;;;;;;29.07;18.53;;;;;;;7.87;100.00;98740.13;4984046;28;20978;-53
2023/04/16 01:27:10;;;;;;;29.57;19.53;;;;;;;7.83;100.00;98748.19;4991364;28;20249;-52
2023/04/16 01:29:36;;;;;;;28.50;19.00;;;;;;;7.81;100.00;98744.09;4992050;28;20293;-53
2023/04/16 01:32:05;;;;;;;28.83;18.03;;;;;;;7.75;100.00;98753.19;4985321;28;20237;-55
2023/04/16 01:34:33;;;;;;;27.73;18.20;;;;;;;7.79;100.00;98752.00;5013621;28;20230;-53
2023/04/16 01:37:00;;;;;;;26.13;17.33;;;;;;;7.84;100.00;98754.22;4998294;28;20636;-56
2023/04/16 01:39:28;;;;;;;26.90;18.37;;;;;;;7.84;100.00;98756.81;4996624;28;20240;-55
2023/04/16 01:41:57;;;;;;;25.57;17.47;;;;;;;7.85;100.00;98755.88;4984750;28;20796;-53
2023/04/16 01:44:24;;;;;;;24.73;17.40;;;;;;;7.85;100.00;98757.63;4980965;28;20403;-56
2023/04/16 01:46:51;;;;;;;24.53;16.83;;;;;;;7.86;100.00;98760.09;4999627;28;20240;-54
2023/04/16 01:49:18;;;;;;;26.03;16.70;;;;;;;7.85;100.00;98752.44;4996915;28;20222;-52
2023/04/16 01:51:50;;;;;;;23.27;16.27;;;;;;;7.86;100.00;98756.69;5006943;28;20242;-57
2023/04/16 01:54:25;;;;;;;27.57;18.93;;;;;;;7.82;100.00;98762.13;4972445;28;20689;-56
2023/04/16 01:56:57;;;;;;;27.53;17.53;;;;;;;7.80;100.00;98752.84;4967568;28;20235;-56
2023/04/16 01:59:24;;;;;;;26.93;17.97;;;;;;;7.71;100.00;98754.41;4943401;28;22024;-57
2023/04/16 02:01:51;;;;;;;25.67;17.67;;;;;;;7.74;100.00;98755.94;4910347;28;20259;-56
2023/04/16 02:04:18;;;;;;;25.93;17.43;;;;;;;7.73;100.00;98764.69;4980947;28;20712;-57
2023/04/16 02:06:44;;;;;;;27.00;18.17;;;;;;;7.73;100.00;98756.91;5002219;28;20725;-54
2023/04/16 02:09:16;;;;;;;28.10;19.00;;;;;;;7.73;100.00;98762.09;4938400;28;20253;-53
2023/04/16 02:11:42;;;;;;;26.57;17.70;;;;;;;7.74;100.00;98759.34;4987930;28;20323;-54
2023/04/16 02:14:10;;;;;;;26.37;16.93;;;;;;;7.76;100.00;98754.84;4988895;28;20271;-54
2023/04/16 02:16:37;;;;;;;27.55;19.95;;;;;;;7.78;100.00;98760.75;4987847;28;20451;-55
2023/04/16 02:19:11;;;;;;;25.37;18.03;;;;;;;7.77;100.00;98759.09;4981119;28;20319;-53
2023/04/16 02:21:38;;;;;;;29.53;18.47;;;;;;;7.73;100.00;98765.50;4998331;28;20231;-53
2023/04/16 02:24:05;;;;;;;27.50;18.03;;;;;;;7.71;100.00;98762.22;5017084;28;20234;-54
2023/04/16 02:26:32;;;;;;;25.87;17.07;;;;;;;7.69;100.00;98764.13;4994982;28;20234;-53
2023/04/16 02:29:05;;;;;;;26.63;17.30;;;;;;;7.72;100.00;98760.44;4994318;28;20690;-54
2023/04/16 02:31:40;;;;;;;28.10;16.87;;;;;;;7.73;100.00;98762.91;4981516;28;20892;-56
2023/04/16 02:34:08;;;;;;;29.40;17.90;;;;;;;7.72;100.00;98763.03;4986947;28;20697;-53
2023/04/16 02:36:34;;;;;;;26.77;18.23;;;;;;;7.71;100.00;98764.81;4990272;28;20223;-54
2023/04/16 02:39:01;;;;;;;25.30;17.17;;;;;;;7.71;100.00;98771.78;4993937;28;20223;-56
2023/04/16 02:41:28;;;;;;;27.33;18.27;;;;;;;7.72;100.00;98776.84;4981525;28;20242;-57
2023/04/16 02:43:55;;;;;;;24.10;16.90;;;;;;;7.72;100.00;98776.03;5003597;28;20780;-53
2023/04/16 02:46:22;;;;;;;26.30;17.03;;;;;;;7.71;100.00;98771.78;5013508;28;20222;-53
2023/04/16 02:48:51;;;;;;;26.27;16.50;;;;;;;7.67;100.00;98772.06;5015531;28;20818;-57
2023/04/16 02:51:17;;;;;;;27.23;17.23;;;;;;;7.66;100.00;98770.41;4994854;28;20230;-56
2023/04/16 02:53:44;;;;;;;25.27;16.90;;;;;;;7.69;100.00;98766.72;4976164;28;20235;-55
2023/04/16 02:56:12;;;;;;;28.10;17.43;;;;;;;7.63;100.00;98762.03;4991217;28;20218;-56
2023/04/16 02:58:39;;;;;;;22.33;15.33;;;;;;;7.66;100.00;98770.41;4983527;28;20266;-56
2023/04/16 03:01:05;;;;;;;24.13;15.83;;;;;;;7.62;100.00;98765.56;4991846;28;21096;-55
2023/04/16 03:03:32;;;;;;;23.23;16.07;;;;;;;7.63;100.00;98767.22;4997695;28;20225;-57
2023/04/16 03:06:00;;;;;;;22.57;15.87;;;;;;;7.61;100.00;98767.38;5003517;28;20237;-54
2023/04/16 03:08:27;;;;;;;24.03;16.13;;;;;;;7.63;100.00;98770.66;4995580;28;20338;-53
2023/04/16 03:10:53;;;;;;;22.00;15.10;;;;;;;7.66;100.00;98764.38;5014371;28;20256;-54
2023/04/16 03:13:20;;;;;;;23.90;16.13;;;;;;;7.63;100.00;98769.81;5010179;28;20234;-57
2023/04/16 03:15:48;;;;;;;23.73;16.27;;;;;;;7.61;100.00;98769.97;4994251;28;20450;-54
2023/04/16 03:18:15;;;;;;;26.17;15.93;;;;;;;7.60;100.00;98768.31;5012604;28;20332;-54
2023/04/16 03:20:42;;;;;;;21.20;14.53;;;;;;;7.61;100.00;98771.72;5013444;28;20322;-55
2023/04/16 03:23:10;;;;;;;23.57;14.80;;;;;;;7.60;100.00;98780.47;4999807;28;20316;-56
2023/04/16 03:25:39;;;;;;;22.70;15.10;;;;;;;7.63;100.00;98775.84;4994456;28;20239;-54
2023/04/16 03:28:07;;;;;;;21.83;14.87;;;;;;;7.62;100.00;98773.38;4988337;28;20235;-53
2023/04/16 03:33:14;;;;;;;24.03;15.27;;;;;;;7.63;100.00;98769.81;4965811;28;20220;-54
2023/04/16 03:35:40;;;;;;;20.37;14.27;;;;;;;7.62;100.00;98773.38;4975310;28;20643;-54
2023/04/16 03:38:07;;;;;;;21.23;14.27;;;;;;;7.62;100.00;98768.16;4956828;28;20314;-56
2023/04/16 03:40:35;;;;;;;21.03;14.37;;;;;;;7.63;100.00;98773.25;4958807;28;20236;-54
2023/04/16 03:43:02;;;;;;;22.17;14.87;;;;;;;7.60;100.00;98775.28;4958702;28;20272;-56
2023/04/16 03:45:28;;;;;;;21.83;15.07;;;;;;;7.57;100.00;98770.34;4972369;28;20310;-55
2023/04/16 03:47:55;;;;;;;22.83;15.67;;;;;;;7.59;100.00;98773.63;4976119;28;20234;-53
2023/04/16 03:50:25;;;;;;;23.77;15.97;;;;;;;7.57;100.00;98772.94;4969380;28;20259;-53
2023/04/16 03:52:51;;;;;;;25.03;16.07;;;;;;;7.56;100.00;98776.47;4971867;28;20759;-55
2023/04/16 03:55:18;;;;;;;21.83;14.90;;;;;;;7.56;100.00;98779.91;4974751;28;20421;-53
2023/04/16 03:57:47;;;;;;;23.17;15.27;;;;;;;7.57;100.00;98778.13;4976486;28;20235;-55
2023/04/16 04:00:15;;;;;;;22.10;14.37;;;;;;;7.57;100.00;98780.72;4971276;28;20237;-54
2023/04/16 04:02:54;;;;;;;21.50;15.00;;;;;;;7.52;100.00;98770.72;4974883;28;20277;-57
2023/04/16 04:05:21;;;;;;;24.17;15.17;;;;;;;7.51;100.00;98777.69;4969896;28;20231;-57
2023/04/16 04:07:48;;;;;;;24.60;14.87;;;;;;;7.50;100.00;98775.22;4973640;28;20234;-55
2023/04/16 04:10:15;;;;;;;22.47;14.23;;;;;;;7.52;100.00;98775.94;4970599;28;20239;-55
2023/04/16 04:12:42;;;;;;;20.23;13.57;;;;;;;7.49;100.00;98774.38;4980811;28;20273;-54
2023/04/16 04:15:11;;;;;;;20.67;13.20;;;;;;;7.51;100.00;98784.66;4970044;28;20621;-54
2023/04/16 04:17:38;;;;;;;21.57;12.90;;;;;;;7.53;100.00;98786.16;4966921;28;20699;-53
2023/04/16 04:20:05;;;;;;;20.77;13.93;;;;;;;7.50;100.00;98783.03;4979529;28;20239;-56
2023/04/16 04:22:32;;;;;;;21.67;13.23;;;;;;;7.52;100.00;98784.53;4975157;28;20247;-56
2023/04/16 04:24:58;;;;;;;20.37;13.50;;;;;;;7.51;100.00;98790.66;4973479;28;20242;-55
2023/04/16 04:27:27;;;;;;;18.87;13.03;;;;;;;7.52;100.00;98800.09;4971359;28;20635;-54
2023/04/16 04:29:54;;;;;;;21.93;14.50;;;;;;;7.50;100.00;98799.41;4974935;28;20641;-54
2023/04/16 04:32:23;;;;;;;23.83;14.17;;;;;;;7.52;100.00;98801.91;4977024;28;20261;-56
2023/04/16 04:34:50;;;;;;;21.73;13.83;;;;;;;7.55;100.00;98804.25;4971711;28;20289;-54
2023/04/16 04:37:16;;;;;;;20.13;12.90;;;;;;;7.53;100.00;98809.56;4987643;28;20295;-53
2023/04/16 04:39:43;;;;;;;22.60;13.60;;;;;;;7.51;100.00;98805.44;4974294;28;20585;-56
2023/04/16 04:42:13;;;;;;;18.40;12.13;;;;;;;7.52;100.00;98810.50;4971436;28;20599;-56
2023/04/16 04:44:40;;;;;;;19.07;12.90;;;;;;;7.55;100.00;98809.44;4976851;28;20266;-55
2023/04/16 04:47:08;;;;;;;21.43;13.00;;;;;;;7.55;100.00;98809.44;4981543;28;20243;-54
2023/04/16 04:49:36;;;;;;;25.17;14.33;;;;;;;7.53;100.00;98814.75;4978932;28;20673;-55
2023/04/16 04:52:03;;;;;;;22.03;13.73;;;;;;;7.53;100.00;98822.53;4978509;28;20236;-55
2023/04/16 04:54:33;;;;;;;24.67;15.97;;;;;;;7.52;100.00;98814.88;4966773;28;20710;-57
2023/04/16 04:57:00;;;;;;;20.60;13.90;;;;;;;7.58;100.00;98818.75;4974644;28;20296;-53
2023/04/16 04:59:28;;;;;;;20.27;13.80;;;;;;;7.56;100.00;98820.63;4973852;28;20255;-53
2023/04/16 05:01:55;;;;;;;20.50;13.47;;;;;;;7.61;100.00;98831.47;4976584;28;20241;-56
2023/04/16 05:04:21;;;;;;;23.30;14.33;;;;;;;7.54;100.00;98826.78;4971470;28;20705;-56
2023/04/16 05:06:49;;;;;;;22.63;14.13;;;;;;;7.53;100.00;98825.13;4978799;28;20765;-53
2023/04/16 05:09:16;;;;;;;19.97;13.90;;;;;;;7.53;100.00;98827.72;4970145;28;20682;-55
2023/04/16 05:11:43;;;;;;;21.90;14.23;;;;;;;7.58;100.00;98836.91;4976501;28;20620;-54
2023/04/16 05:14:09;;;;;;;21.60;13.50;;;;;;;7.58;100.00;98834.31;4974933;28;20735;-57
2023/04/16 05:16:37;;;;;;;22.90;14.13;;;;;;;7.57;100.00;98837.88;4975971;28;20242;-56
2023/04/16 05:19:04;;;;;;;22.07;13.70;;;;;;;7.56;100.00;98837.06;4973943;28;20232;-57
2023/04/16 05:21:31;;;;;;;23.23;13.83;;;;;;;7.57;100.00;98843.91;4977442;28;20680;-55
2023/04/16 05:23:59;;;;;;;23.00;13.57;;;;;;;7.56;100.00;98850.06;4977902;28;20275;-56
2023/04/16 05:26:25;;;;;;;19.57;12.37;;;;;;;7.55;100.00;98845.81;4975822;28;20248;-56
2023/04/16 05:28:52;;;;;;;21.97;13.97;;;;;;;7.57;100.00;98850.84;4976004;28;20244;-54
2023/04/16 05:31:18;;;;;;;25.30;14.40;;;;;;;7.57;100.00;98848.25;4974657;28;20242;-56
2023/04/16 05:33:45;;;;;;;23.80;14.10;;;;;;;7.57;100.00;98848.25;4976492;28;20634;-54
2023/04/16 05:36:11;;;;;;;19.50;13.17;;;;;;;7.55;100.00;98858.78;4974994;28;20654;-57
2023/04/16 05:38:38;;;;;;;22.47;13.77;;;;;;;7.52;100.00;98870.25;4974668;28;20307;-56
2023/04/16 05:41:06;;;;;;;21.33;13.70;;;;;;;7.54;100.00;98867.53;4973951;28;20291;-54
2023/04/16 05:43:33;;;;;;;23.07;13.50;;;;;;;7.57;100.00;98867.28;4976700;28;20634;-53
2023/04/16 05:45:59;;;;;;;20.67;13.27;;;;;;;7.58;100.00;98868.94;4977310;28;20223;-56
2023/04/16 05:48:26;;;;;;;21.37;13.07;;;;;;;7.58;100.00;98865.50;4972210;28;20244;-56
2023/04/16 05:50:52;;;;;;;21.13;14.20;;;;;;;7.60;100.00;98874.00;4970819;28;21039;-57
2023/04/16 05:53:19;;;;;;;22.33;14.60;;;;;;;7.63;100.00;98878.94;4971947;28;20234;-55
2023/04/16 05:55:45;;;;;;;22.30;13.80;;;;;;;7.64;100.00;98881.44;4986805;28;20234;-55
2023/04/16 05:58:13;;;;;;;18.20;11.97;;;;;;;7.61;100.00;98891.22;4990107;28;20279;-55
2023/04/16 06:00:40;;;;;;;19.90;12.43;;;;;;;7.58;100.00;98888.88;4992128;28;20761;-55
2023/04/16 06:03:07;;;;;;;20.07;12.87;;;;;;;7.57;100.00;98884.63;4993726;28;20219;-55
2023/04/16 06:05:33;;;;;;;24.40;13.63;;;;;;;7.56;100.00;98891.63;4995371;28;20239;-56
2023/04/16 06:08:00;;;;;;;22.53;13.40;;;;;;;7.62;100.00;98892.88;4993965;28;20226;-56
2023/04/16 06:10:26;;;;;;;20.23;13.37;;;;;;;7.64;100.00;98893.56;4991751;28;20222;-56
2023/04/16 06:12:53;;;;;;;20.90;13.00;;;;;;;7.65;100.00;98895.22;4989379;28;20686;-55
2023/04/16 06:15:21;;;;;;;20.13;13.00;;;;;;;7.66;100.00;98897.72;4990703;28;20238;-53
2023/04/16 06:17:49;;;;;;;18.83;12.33;;;;;;;7.63;100.00;98899.72;4993911;28;20235;-53
2023/04/16 06:20:15;;;;;;;18.63;12.27;;;;;;;7.65;100.00;98903.03;4989238;28;20748;-53
2023/04/16 06:22:42;;;;;;;19.60;11.83;;;;;;;7.68;100.00;98900.16;4995549;28;20250;-53
2023/04/16 06:25:09;;;;;;;20.93;12.37;;;;;;;7.65;100.00;98896.06;4991541;28;20258;-52
2023/04/16 06:27:36;;;;;;;17.47;12.10;;;;;;;7.64;100.00;98907.41;4995091;28;20238;-52
2023/04/16 06:30:03;;;;;;;18.87;11.90;;;;;;;7.64;100.00;98902.22;4990358;28;20311;-54
2023/04/16 06:32:31;;;;;;;21.97;13.20;;;;;;;7.68;100.00;98908.81;4973428;28;20289;-53
2023/04/16 06:34:58;;;;;;;19.40;12.33;;;;;;;7.69;100.00;98914.81;4970974;28;20333;-55
2023/04/16 06:37:24;;;;;;;17.47;11.53;;;;;;;7.72;100.00;98917.16;4972952;28;22132;-52
2023/04/16 06:39:51;;;;;;;21.50;11.93;;;;;;;7.71;100.00;98920.72;4951832;28;20223;-53
2023/04/16 06:42:17;;;;;;;20.00;12.20;;;;;;;7.66;100.00;98921.09;4969473;28;20562;-53
2023/04/16 06:44:44;;;;;;;19.80;11.97;;;;;;;7.69;100.00;98920.00;4957376;28;20244;-54
2023/04/16 06:47:10;;;;;;;19.47;12.37;;;;;;;7.74;100.00;98927.44;4971079;28;20235;-53
2023/04/16 06:49:39;;;;;;;21.47;13.83;;;;;;;7.78;100.00;98916.66;4973634;28;20239;-56
2023/04/16 06:52:05;;;;;;;18.37;12.53;;;;;;;7.78;100.00;98926.25;4969139;28;20724;-56
2023/04/16 06:54:32;;;;;;;19.67;12.50;;;;;;;7.77;100.00;98922.00;4971376;28;20234;-54
2023/04/16 06:56:59;;;;;;;18.90;12.30;;;;;;;7.77;100.00;98925.41;4969091;28;20236;-53
2023/04/16 06:59:25;;;;;;;19.37;12.30;;;;;;;7.81;100.00;98926.81;4968114;28;20729;-54
2023/04/16 07:01:52;;;;;;;24.02;16.10;;;;;;;7.84;100.00;98923.16;4973264;28;20847;-56
2023/04/16 07:04:18;;;;;;;21.97;15.73;;;;;;;7.85;100.00;98930.00;4970797;28;20240;-55
2023/04/16 07:06:49;;;;;;;21.93;14.67;;;;;;;7.85;100.00;98930.00;4975094;28;20706;-56
2023/04/16 07:09:17;;;;;;;20.67;13.47;;;;;;;7.85;100.00;98932.59;4967473;28;20287;-53
2023/04/16 07:11:44;;;;;;;20.87;12.53;;;;;;;7.91;100.00;98934.69;4976380;28;20798;-53
2023/04/16 07:14:10;;;;;;;21.07;13.63;;;;;;;7.92;100.00;98938.09;4971890;28;20794;-56
2023/04/16 07:16:40;;;;;;;20.67;12.87;;;;;;;7.95;100.00;98935.25;4975151;28;20227;-55
2023/04/16 07:19:06;;;;;;;22.00;12.23;;;;;;;7.94;100.00;98931.00;4970587;28;20242;-57
2023/04/16 07:21:33;;;;;;;19.17;11.63;;;;;;;7.91;100.00;98933.84;4971780;28;20715;-53
2023/04/16 07:24:01;;;;;;;18.10;11.83;;;;;;;7.94;100.00;98933.59;4974821;28;20232;-55
2023/04/16 07:26:27;;;;;;;20.63;12.80;;;;;;;7.88;100.00;98936.69;4970963;28;20227;-54
2023/04/16 07:28:54;;;;;;;22.47;13.60;;;;;;;7.94;100.00;98933.59;4971639;28;21211;-54
2023/04/16 07:31:20;;;;;;;16.33;11.57;;;;;;;7.98;100.00;98937.59;4972418;28;20238;-55
2023/04/16 07:33:47;;;;;;;19.10;12.00;;;;;;;8.00;100.00;98937.44;4973300;28;20760;-55
2023/04/16 07:36:14;;;;;;;25.60;15.90;;;;;;;8.03;100.00;98945.00;4974079;28;20284;-54
2023/04/16 07:38:40;;;;;;;21.73;12.50;;;;;;;8.08;100.00;98941.09;4974615;28;20250;-53
2023/04/16 07:41:08;;;;;;;19.37;12.53;;;;;;;8.08;100.00;98951.50;4971034;28;20242;-56
2023/04/16 07:43:35;;;;;;;17.97;11.67;;;;;;;8.13;100.00;98941.53;4968267;28;20796;-53
2023/04/16 07:46:01;;;;;;;20.17;12.03;;;;;;;8.18;100.00;98948.94;4968517;28;20623;-57
2023/04/16 07:48:28;;;;;;;18.53;12.43;;;;;;;8.17;100.00;98944.69;4966561;28;20238;-53
2023/04/16 07:50:55;;;;;;;19.97;12.57;;;;;;;8.23;100.00;98946.78;4971642;28;20617;-56
2023/04/16 07:53:21;;;;;;;19.70;12.33;;;;;;;8.28;100.00;98957.63;4968603;28;20317;-54
2023/04/16 07:55:48;;;;;;;21.40;13.27;;;;;;;8.39;100.00;98955.91;4972490;28;20230;-53
2023/04/16 07:58:16;;;;;;;16.67;11.40;;;;;;;8.42;100.00;98960.84;4970197;28;20239;-53
2023/04/16 08:00:44;;;;;;;21.93;13.90;;;;;;;8.51;100.00;98959.28;4969658;28;20236;-53
2023/04/16 08:03:14;;;;;;;19.73;12.73;;;;;;;8.57;100.00;98957.00;4969132;28;20231;-56
2023/04/16 08:05:41;;;;;;;19.27;12.27;;;;;;;8.61;100.00;98961.94;4972958;28;20239;-53
2023/04/16 08:08:07;;;;;;;18.60;11.60;;;;;;;8.62;100.00;98967.00;4969556;28;20400;-56
2023/04/16 08:10:34;;;;;;;18.40;11.83;;;;;;;8.69;100.00;98965.53;4977666;28;20230;-55
2023/04/16 08:13:01;;;;;;;19.20;12.10;;;;;;;8.73;100.00;98976.50;4953934;28;20234;-53
2023/04/16 08:15:29;;;;;;;21.33;11.43;;;;;;;8.80;100.00;98982.00;4977535;28;20235;-56
2023/04/16 08:17:56;;;;;;;20.83;12.07;;;;;;;8.86;100.00;98978.88;4975111;28;20232;-53
2023/04/16 08:20:22;;;;;;;18.53;11.63;;;;;;;8.87;100.00;98983.13;4973410;28;20271;-54
2023/04/16 08:22:49;;;;;;;19.73;11.77;;;;;;;8.92;100.00;98982.75;4977201;28;20303;-55
2023/04/16 08:25:15;;;;;;;19.00;10.67;;;;;;;8.97;100.00;98991.81;4976689;28;20294;-56
2023/04/16 08:27:42;;;;;;;19.40;12.30;;;;;;;8.95;100.00;98990.31;4975106;28;20240;-54
2023/04/16 08:30:09;;;;;;;20.90;12.00;;;;;;;8.97;100.00;98996.22;4974446;28;20599;-54
2023/04/16 08:32:37;;;;;;;21.73;12.70;;;;;;;8.83;100.00;99002.56;4978162;28;20643;-55
2023/04/16 08:35:04;;;;;;;21.23;12.97;;;;;;;8.79;100.00;99006.38;4975195;28;20243;-54
2023/04/16 08:37:30;;;;;;;21.10;12.93;;;;;;;8.73;100.00;99004.31;4973805;28;20236;-55
2023/04/16 08:39:57;;;;;;;23.43;12.57;;;;;;;8.76;100.00;99010.09;4967294;28;20234;-56
2023/04/16 08:42:30;;;;;;;19.17;11.27;;;;;;;8.82;100.00;99008.75;4973971;28;22428;-55
2023/04/16 08:45:06;;;;;;;21.57;11.90;;;;;;;8.79;100.00;99009.84;4958497;28;20243;-53
2023/04/16 08:47:35;;;;;;;19.17;11.60;;;;;;;8.83;100.00;99013.00;4969944;28;20239;-56
2023/04/16 08:50:04;;;;;;;18.87;12.10;;;;;;;8.91;100.00;99012.34;4976296;28;20232;-56
2023/04/16 08:52:32;;;;;;;26.00;14.67;;;;;;;8.91;100.00;99020.97;4972654;28;20745;-54
2023/04/16 08:55:05;;;;;;;22.30;13.77;;;;;;;8.95;100.00;99018.94;4974888;28;20256;-54
2023/04/16 08:57:38;;;;;;;23.83;13.50;;;;;;;9.03;100.00;99013.06;4971851;28;20246;-57
2023/04/16 09:00:08;;;;;;;22.87;11.37;;;;;;;9.06;100.00;99018.03;4969707;28;20335;-54
2023/04/16 09:02:35;;;;;;;19.63;11.23;;;;;;;9.17;100.00;99030.94;4972661;28;20242;-54
2023/04/16 09:05:07;;;;;;;19.47;12.47;;;;;;;9.31;100.00;99019.31;4974969;28;20236;-54
2023/04/16 09:07:34;;;;;;;20.10;13.27;;;;;;;9.37;100.00;99024.00;4974263;28;20722;-56
2023/04/16 09:10:01;;;;;;;26.07;16.10;;;;;;;9.43;100.00;99025.28;4975990;28;20216;-53
2023/04/16 09:12:27;;;;;;;23.70;14.47;;;;;;;9.37;100.00;99026.63;4972114;28;20251;-53
2023/04/16 09:14:56;;;;;;;19.87;12.93;;;;;;;9.35;100.00;99028.53;4977655;28;20294;-54
2023/04/16 09:17:22;;;;;;;20.10;12.00;;;;;;;9.40;100.00;99025.53;4973760;28;20234;-56
2023/04/16 09:19:49;;;;;;;19.37;12.47;;;;;;;9.39;100.00;99032.50;4975384;28;20282;-53
2023/04/16 09:22:17;;;;;;;23.57;13.77;;;;;;;9.45;100.00;99029.38;4971630;28;20717;-54
2023/04/16 09:24:44;;;;;;;20.30;12.83;;;;;;;9.42;100.00;99029.66;4975518;28;20240;-53
2023/04/16 09:27:12;;;;;;;19.70;12.37;;;;;;;9.44;100.00;99030.34;4968992;28;20234;-54
2023/04/16 09:29:40;;;;;;;19.40;12.13;;;;;;;9.49;100.00;99031.72;4972551;28;20622;-56
2023/04/16 09:32:08;;;;;;;19.50;12.67;;;;;;;9.50;100.00;99035.97;4973970;28;20238;-55
2023/04/16 09:34:53;;;;;;;20.33;12.07;;;;;;;9.44;100.00;99032.13;4978017;28;20240;-53
2023/04/16 09:37:21;;;;;;;20.90;13.33;;;;;;;9.55;100.00;99037.19;4969929;28;20244;-53
2023/04/16 09:39:53;;;;;;;20.87;12.10;;;;;;;9.67;100.00;99031.88;4978636;28;20847;-53
2023/04/16 09:42:22;;;;;;;17.90;10.77;;;;;;;9.83;100.00;99031.38;4969081;28;20328;-54
2023/04/16 09:44:50;;;;;;;17.10;10.90;;;;;;;9.89;100.00;99042.06;4976573;28;20231;-54
2023/04/16 09:47:16;;;;;;;16.33;10.53;;;;;;;10.03;100.00;99030.41;5007231;23;20254;-61
2023/04/16 09:49:43;;;;;;;16.97;11.40;;;;;;;10.10;100.00;99035.91;5006759;28;20234;-61
2023/04/16 09:52:14;;;;;;;18.63;11.10;;;;;;;10.15;100.00;99030.25;5003319;28;20235;-61
2023/04/16 09:54:50;;;;;;;18.47;10.83;;;;;;;10.14;100.00;99039.88;5004933;28;20237;-61
2023/04/16 09:57:23;;;;;;;18.57;11.00;;;;;;;10.02;97.09;99049.63;5002955;28;20237;-61
2023/04/16 09:59:53;;;;;;;17.80;11.03;;;;;;;10.21;98.49;99049.75;5006360;28;20749;-61
2023/04/16 10:02:20;;;;;;;18.70;11.17;;;;;;;10.18;98.67;99056.06;5002934;28;20338;-61
2023/04/16 10:04:48;;;;;;;18.27;11.53;;;;;;;10.29;100.00;99047.28;5006266;28;20330;-61
2023/04/16 10:07:14;;;;;;;16.70;10.57;;;;;;;10.29;100.00;99048.09;5002767;28;20318;-61
2023/04/16 10:09:41;;;;;;;16.17;10.70;;;;;;;10.26;97.09;99055.41;5006042;28;20234;-61
2023/04/16 10:12:09;;;;;;;17.23;10.97;;;;;;;10.03;93.90;99055.66;5002496;28;20320;-62
2023/04/16 10:14:36;;;;;;;15.87;10.60;;;;;;;9.98;96.30;99052.63;5005792;28;20233;-61
2023/04/16 10:17:04;;;;;;;15.37;10.43;;;;;;;10.04;98.31;99059.91;5006117;28;20760;-61
2023/04/16 10:19:32;;;;;;;18.90;10.63;;;;;;;10.06;97.65;99060.59;5023286;28;20321;-61
2023/04/16 10:21:59;;;;;;;16.90;10.73;;;;;;;10.13;99.38;99058.25;5025337;28;20242;-61
2023/04/16 10:24:26;;;;;;;16.77;10.20;;;;;;;10.19;100.00;99066.38;5022403;28;20260;-61
2023/04/16 10:26:52;;;;;;;18.47;11.33;;;;;;;10.14;100.00;99065.13;5024448;28;20293;-60
2023/04/16 10:29:21;;;;;;;20.10;11.80;;;;;;;10.19;100.00;99068.16;5022658;28;20290;-61
2023/04/16 10:31:49;;;;;;;16.57;10.77;;;;;;;10.13;100.00;99069.53;5022867;28;20250;-61
2023/04/16 10:34:16;;;;;;;19.83;10.67;;;;;;;10.10;100.00;99066.34;5021955;28;20233;-61
2023/04/16 10:36:47;;;;;;;16.17;11.10;;;;;;;10.10;100.00;99068.97;5025451;28;20229;-62
2023/04/16 10:39:18;;;;;;;17.47;10.33;;;;;;;10.08;100.00;99063.06;5022335;28;20235;-61
2023/04/16 10:41:45;;;;;;;18.13;10.57;;;;;;;10.04;100.00;99065.13;5024411;28;20547;-61
2023/04/16 10:44:12;;;;;;;15.47;10.30;;;;;;;10.10;100.00;99069.81;5020678;28;20241;-61
2023/04/16 10:46:41;;;;;;;17.37;10.93;;;;;;;10.14;100.00;99067.72;5025008;28;20237;-61
2023/04/16 10:49:16;;;;;;;17.07;10.70;;;;;;;10.20;100.00;99075.00;4987526;28;20223;-61
2023/04/16 10:51:53;;;;;;;16.47;9.83;;;;;;;10.30;100.00;99069.81;5010131;28;20323;-61
2023/04/16 10:54:22;;;;;;;15.20;9.90;;;;;;;10.30;100.00;99068.00;5003645;28;20243;-61
2023/04/16 10:56:50;;;;;;;16.67;10.70;;;;;;;10.24;98.47;99075.59;5005567;28;20634;-61
2023/04/16 10:59:18;;;;;;;15.37;9.67;;;;;;;10.24;98.95;99067.75;5002347;28;20307;-61
2023/04/16 11:01:47;;;;;;;18.77;11.27;;;;;;;10.14;98.50;99075.56;5003924;28;20732;-62
2023/04/16 11:04:43;;;;;;;14.77;9.87;;;;;;;10.00;96.89;99068.97;5001718;28;20239;-61
2023/04/16 11:07:18;;;;;;;17.87;10.80;;;;;;;10.03;99.11;99063.50;4989499;28;20237;-61
2023/04/16 11:09:54;;;;;;;16.80;9.80;;;;;;;10.00;98.59;99067.22;5005251;28;20293;-61
2023/04/16 11:12:21;;;;;;;19.20;11.30;;;;;;;9.89;98.57;99059.50;5001222;28;20648;-61
2023/04/16 11:14:50;;;;;;;16.90;10.43;;;;;;;9.95;98.62;99063.34;5005190;28;20232;-61
2023/04/16 11:17:18;;;;;;;15.90;11.20;;;;;;;9.65;98.42;99067.69;5002616;28;20594;-62
2023/04/16 11:19:45;;;;;;;20.53;11.10;;;;;;;9.69;99.93;99067.28;5005271;28;20231;-61
2023/04/16 11:22:17;;;;;;;18.37;11.20;;;;;;;9.68;100.00;99070.03;5002216;28;20230;-62